GOOK

Kaolack Airport

Kaolack, Senegal
METAR GOOK 202100Z 22004KT 8000 NSC 28/23 Q1013
Observed Flight Rules
Aug-20 @ 21:00 UTC (3 hours ago) Marginal Visual Flight Rules
Wind Visibility Clouds
220° at 4 knots 7,998 meters
  • Clear skies
Temperatures Readings
Current 28°C / 82°F
Dewpoint 23°C / 73°F
Humidity 74%
Altimeter 29.91" Hg
Pressure 1013 hPa
Elevation 7
METAR GOOK 202100Z 22004KT 8000 NSC 28/23 Q1013
Observed Flight Rules
Aug-20 @ 21:00 UTC
(3 hours ago)
MVFR
Wind Visibility
220° at 4 knots 7,998 meters
Clouds
  • Clear skies
Temperature Dewpoint
28°C / 82°F 23°C / 73°F
Humidity Altimeter Pressure
74% 29.91" Hg 1013 hPa